createdAt,value
2024-05-09T00:00:59.115Z,20.67
2024-05-09T00:03:01.273Z,20.02
2024-05-09T00:05:03.334Z,18.20
2024-05-09T00:07:05.164Z,21.52
2024-05-09T00:09:06.860Z,20.08
2024-05-09T00:11:08.739Z,20.52
2024-05-09T00:13:11.243Z,23.02
2024-05-09T00:15:13.184Z,18.45
2024-05-09T00:17:14.976Z,26.15
2024-05-09T00:19:16.815Z,20.67
2024-05-09T00:21:18.562Z,26.00
2024-05-09T00:23:20.394Z,23.35
2024-05-09T00:25:22.072Z,19.30
2024-05-09T00:27:23.791Z,17.67
2024-05-09T00:29:25.588Z,25.73
2024-05-09T00:31:27.386Z,19.15
2024-05-09T00:33:29.412Z,21.65
2024-05-09T00:35:31.458Z,23.50
2024-05-09T00:37:33.193Z,20.90
2024-05-09T00:39:34.806Z,22.35
2024-05-09T00:41:36.573Z,22.30
2024-05-09T00:43:38.221Z,19.65
2024-05-09T00:45:39.803Z,22.65
2024-05-09T00:47:42.948Z,20.90
2024-05-09T00:49:44.799Z,25.13
2024-05-09T00:51:46.571Z,19.05
2024-05-09T00:53:49.190Z,20.52
2024-05-09T00:55:52.545Z,23.65
2024-05-09T00:57:54.532Z,21.15
2024-05-09T00:59:56.526Z,18.92
2024-05-09T01:01:59.221Z,20.98
2024-05-09T01:04:01.280Z,21.75
2024-05-09T01:06:03.053Z,22.67
2024-05-09T01:08:05.295Z,19.98
2024-05-09T01:10:13.834Z,21.58
2024-05-09T01:12:19.236Z,21.33
2024-05-09T01:14:21.039Z,21.90
2024-05-09T01:16:22.750Z,21.27
2024-05-09T01:18:25.024Z,19.95
2024-05-09T01:20:37.243Z,21.55
2024-05-09T01:22:44.495Z,21.92
2024-05-09T01:24:46.183Z,21.23
2024-05-09T01:26:48.364Z,27.70
2024-05-09T01:28:50.015Z,25.98
2024-05-09T01:30:51.710Z,24.27
2024-05-09T01:32:53.468Z,27.60
2024-05-09T01:34:55.216Z,23.77
2024-05-09T01:36:56.848Z,17.33
2024-05-09T01:38:58.666Z,19.50
2024-05-09T01:41:00.375Z,17.13
2024-05-09T01:43:02.057Z,16.83
2024-05-09T01:45:03.959Z,20.92
2024-05-09T01:47:05.701Z,22.73
2024-05-09T01:49:08.140Z,17.63
2024-05-09T01:51:10.135Z,18.48
2024-05-09T01:53:13.089Z,21.90
2024-05-09T01:55:15.175Z,20.70
2024-05-09T01:57:16.810Z,21.83
2024-05-09T01:59:18.455Z,18.98
2024-05-09T02:01:20.081Z,19.00
2024-05-09T02:03:22.024Z,19.25
2024-05-09T02:05:23.851Z,19.98
2024-05-09T02:07:25.647Z,17.92
2024-05-09T02:09:27.260Z,20.40
2024-05-09T02:11:28.948Z,19.83
2024-05-09T02:13:30.637Z,19.25
2024-05-09T02:15:32.252Z,15.63
2024-05-09T02:17:33.988Z,20.00
2024-05-09T02:19:35.769Z,17.27
2024-05-09T02:21:37.474Z,17.15
2024-05-09T02:23:39.194Z,16.27
2024-05-09T02:25:41.420Z,17.38
2024-05-09T02:27:43.016Z,15.32
2024-05-09T02:29:45.334Z,16.13
2024-05-09T02:31:47.116Z,19.10
2024-05-09T02:33:49.139Z,16.00
2024-05-09T02:35:51.092Z,14.18
2024-05-09T02:37:52.803Z,12.00
2024-05-09T02:39:54.468Z,15.50
2024-05-09T02:41:56.072Z,15.73
2024-05-09T02:43:57.786Z,15.07
2024-05-09T02:45:59.458Z,16.00
2024-05-09T02:48:02.054Z,13.63
2024-05-09T02:50:05.978Z,14.93
2024-05-09T02:52:07.864Z,14.30
2024-05-09T02:54:10.753Z,15.57
2024-05-09T02:56:12.431Z,14.73
2024-05-09T02:58:14.187Z,14.73
2024-05-09T03:00:22.560Z,16.10
2024-05-09T03:02:30.983Z,18.38
2024-05-09T03:04:32.861Z,16.50
2024-05-09T03:06:34.559Z,15.40
2024-05-09T03:08:36.363Z,17.88
2024-05-09T03:10:39.236Z,17.13
2024-05-09T03:12:42.568Z,17.40
2024-05-09T03:14:45.869Z,19.92
2024-05-09T03:16:48.421Z,18.00
2024-05-09T03:18:51.247Z,15.13
2024-05-09T03:20:54.924Z,18.13
2024-05-09T03:22:58.278Z,13.70
2024-05-09T03:25:02.042Z,14.05
2024-05-09T03:27:05.903Z,10.75
2024-05-09T03:29:09.352Z,14.05
2024-05-09T03:31:13.116Z,9.95
2024-05-09T03:33:19.918Z,16.20
2024-05-09T03:35:22.912Z,13.15
2024-05-09T03:37:24.604Z,11.23
2024-05-09T03:39:26.230Z,10.70
2024-05-09T03:41:27.885Z,10.20
2024-05-09T03:43:29.480Z,11.60
2024-05-09T03:45:31.118Z,10.20
2024-05-09T03:47:35.561Z,9.05
2024-05-09T03:49:37.428Z,10.20
2024-05-09T03:51:39.098Z,10.77
2024-05-09T03:53:40.755Z,11.27
2024-05-09T03:55:42.397Z,10.98
2024-05-09T03:57:44.021Z,15.55
2024-05-09T03:59:45.643Z,9.93
2024-05-09T04:01:47.343Z,10.77
2024-05-09T04:03:49.443Z,13.32
2024-05-09T04:05:51.358Z,10.60
2024-05-09T04:07:53.063Z,12.95
2024-05-09T04:09:54.741Z,11.15
2024-05-09T04:11:56.481Z,12.45
2024-05-09T04:13:58.239Z,14.00
2024-05-09T04:15:59.875Z,12.40
2024-05-09T04:18:02.342Z,14.32
2024-05-09T04:20:06.562Z,12.73
2024-05-09T04:22:10.090Z,21.30
2024-05-09T04:24:11.685Z,20.77
2024-05-09T04:26:14.099Z,22.63
2024-05-09T04:28:16.592Z,20.20
2024-05-09T04:30:26.041Z,24.65
2024-05-09T04:32:36.300Z,31.67
2024-05-09T04:34:37.985Z,30.73
2024-05-09T04:36:41.572Z,41.33
2024-05-09T04:38:44.791Z,52.03
2024-05-09T04:40:46.426Z,52.13
2024-05-09T04:42:48.078Z,42.65
2024-05-09T04:44:49.711Z,39.00
2024-05-09T04:46:51.547Z,32.28
2024-05-09T04:48:54.198Z,48.95
2024-05-09T04:50:55.967Z,33.25
2024-05-09T04:52:57.668Z,33.50
2024-05-09T04:54:59.318Z,50.78
2024-05-09T04:57:00.933Z,34.13
2024-05-09T04:59:02.572Z,28.30
2024-05-09T05:01:04.309Z,42.35
2024-05-09T05:03:07.596Z,36.78
2024-05-09T05:05:11.705Z,26.42
2024-05-09T05:07:13.600Z,30.33
2024-05-09T05:09:15.200Z,35.75
2024-05-09T05:11:16.947Z,29.33
2024-05-09T05:13:24.908Z,35.78
2024-05-09T05:15:26.930Z,42.60
2024-05-09T05:17:28.745Z,50.70
2024-05-09T05:19:30.832Z,42.78
2024-05-09T05:21:32.729Z,51.60
2024-05-09T05:23:34.719Z,28.77
2024-05-09T05:25:36.652Z,32.40
2024-05-09T05:27:38.535Z,28.60
2024-05-09T05:29:40.184Z,49.42
2024-05-09T05:31:41.891Z,33.53
2024-05-09T05:33:43.721Z,30.10
2024-05-09T05:35:45.515Z,25.52
2024-05-09T05:37:47.217Z,25.98
2024-05-09T05:39:48.884Z,24.10
2024-05-09T05:41:50.496Z,26.80
2024-05-09T05:43:52.238Z,32.30
2024-05-09T05:45:53.904Z,41.97
2024-05-09T05:47:55.892Z,40.20
2024-05-09T05:49:57.954Z,35.13
2024-05-09T05:51:59.719Z,24.42
2024-05-09T05:54:01.356Z,20.15
2024-05-09T05:56:03.516Z,20.60
2024-05-09T05:58:05.774Z,23.25
2024-05-09T06:00:09.812Z,17.70
2024-05-09T06:04:16.889Z,20.92
2024-05-09T06:06:19.287Z,19.75
2024-05-09T06:08:22.142Z,18.75
2024-05-09T06:10:29.677Z,21.90
2024-05-09T06:12:37.899Z,17.80
2024-05-09T06:14:41.007Z,19.58
2024-05-09T06:16:43.956Z,18.13
2024-05-09T06:18:47.093Z,16.05
2024-05-09T06:20:49.348Z,18.80
2024-05-09T06:22:52.109Z,18.70
2024-05-09T06:24:54.707Z,19.17
2024-05-09T06:26:57.160Z,15.65
2024-05-09T06:29:01.892Z,15.70
2024-05-09T06:31:04.238Z,15.73
2024-05-09T06:33:07.312Z,15.73
2024-05-09T06:35:09.968Z,14.27
2024-05-09T06:37:12.805Z,14.52
2024-05-09T06:39:14.584Z,14.67
2024-05-09T06:41:16.318Z,16.98
2024-05-09T06:43:19.444Z,13.80
2024-05-09T06:47:23.274Z,14.45
2024-05-09T06:49:29.086Z,14.27
2024-05-09T06:51:30.786Z,15.45
2024-05-09T06:53:32.558Z,20.13
2024-05-09T06:55:34.295Z,14.05
2024-05-09T06:57:36.704Z,12.88
2024-05-09T06:59:39.371Z,12.85
2024-05-09T07:01:41.129Z,14.52
2024-05-09T07:03:42.891Z,10.52
2024-05-09T07:05:45.054Z,11.30
2024-05-09T07:07:46.948Z,10.98
2024-05-09T07:09:48.632Z,9.48
2024-05-09T07:11:50.432Z,11.48
2024-05-09T07:13:52.179Z,10.70
2024-05-09T07:15:53.977Z,9.98
2024-05-09T07:17:55.783Z,8.65
2024-05-09T07:19:57.674Z,7.43
2024-05-09T07:22:00.063Z,7.18
2024-05-09T07:24:01.713Z,6.73
2024-05-09T07:26:03.464Z,6.38
2024-05-09T07:28:05.480Z,9.90
2024-05-09T07:30:09.363Z,8.40
2024-05-09T07:32:13.488Z,10.25
2024-05-09T07:34:16.657Z,8.05
2024-05-09T07:36:18.407Z,8.40
2024-05-09T07:38:20.215Z,9.50
2024-05-09T07:42:27.472Z,10.23
2024-05-09T07:44:30.553Z,9.27
2024-05-09T07:50:34.458Z,8.52
2024-05-09T07:53:36.169Z,5.72
2024-05-09T07:55:24.809Z,5.97
2024-05-09T07:57:26.608Z,10.40
2024-05-09T07:59:28.294Z,6.70
2024-05-09T08:01:30.061Z,4.57
2024-05-09T08:03:31.910Z,4.72
2024-05-09T08:05:33.733Z,3.33
2024-05-09T08:07:37.558Z,3.28
2024-05-09T08:09:39.880Z,4.00
2024-05-09T08:11:41.652Z,7.95
2024-05-09T08:13:43.409Z,7.88
2024-05-09T08:15:45.244Z,3.63
2024-05-09T08:17:47.059Z,3.15
2024-05-09T08:19:48.816Z,4.60
2024-05-09T08:21:50.555Z,2.85
2024-05-09T08:23:52.402Z,2.65
2024-05-09T08:25:54.044Z,3.63
2024-05-09T08:27:55.836Z,2.50
2024-05-09T08:29:57.505Z,2.30
2024-05-09T08:31:59.683Z,4.13
2024-05-09T08:34:01.553Z,2.40
2024-05-09T08:36:03.347Z,2.78
2024-05-09T08:38:06.175Z,2.85
2024-05-09T08:40:11.149Z,4.03
2024-05-09T08:42:21.043Z,2.05
2024-05-09T08:44:23.127Z,2.25
2024-05-09T08:46:26.808Z,2.95
2024-05-09T08:48:30.153Z,2.90
2024-05-09T08:50:38.203Z,1.52
2024-05-09T08:52:41.357Z,1.95
2024-05-09T08:54:43.025Z,1.95
2024-05-09T08:56:45.849Z,1.92
2024-05-09T09:02:52.920Z,2.13
2024-05-09T09:05:02.248Z,3.28
2024-05-09T09:07:04.877Z,4.60
2024-05-09T09:09:07.150Z,1.67
2024-05-09T09:11:09.350Z,1.80
2024-05-09T09:13:11.548Z,8.35
2024-05-09T09:15:13.708Z,2.05
2024-05-09T09:17:16.394Z,2.10
2024-05-09T09:19:18.938Z,2.50
2024-05-09T09:21:20.842Z,2.20
2024-05-09T09:23:22.946Z,2.25
2024-05-09T09:25:25.138Z,1.63
2024-05-09T09:27:27.158Z,3.55
2024-05-09T09:29:31.173Z,6.90
2024-05-09T09:31:33.473Z,3.40
2024-05-09T09:33:36.481Z,4.60
2024-05-09T09:35:41.794Z,2.63
2024-05-09T09:37:45.852Z,3.08
2024-05-09T09:39:49.216Z,2.97
2024-05-09T09:41:51.861Z,1.63
2024-05-09T09:43:53.763Z,3.58
2024-05-09T09:45:59.805Z,4.88
2024-05-09T09:48:02.024Z,5.22
2024-05-09T09:50:07.079Z,2.43
2024-05-09T09:52:12.061Z,3.90
2024-05-09T09:54:13.835Z,2.92
2024-05-09T09:56:16.115Z,3.97
2024-05-09T09:58:18.039Z,8.93
2024-05-09T10:00:24.673Z,3.53
2024-05-09T10:02:32.334Z,2.88
2024-05-09T10:04:34.231Z,2.58
2024-05-09T10:06:38.161Z,2.05
2024-05-09T10:08:39.979Z,4.40
2024-05-09T10:10:45.736Z,3.05
2024-05-09T10:12:58.709Z,2.40
2024-05-09T10:15:06.043Z,4.57
2024-05-09T10:17:07.717Z,2.70
2024-05-09T10:19:09.783Z,3.60
2024-05-09T10:21:20.913Z,2.83
2024-05-09T10:23:26.249Z,3.88
2024-05-09T10:25:27.940Z,3.17
2024-05-09T10:27:30.270Z,5.38
2024-05-09T10:29:31.939Z,2.97
2024-05-09T10:31:33.673Z,4.00
2024-05-09T10:33:39.128Z,5.57
2024-05-09T10:35:50.420Z,4.97
2024-05-09T10:37:52.944Z,4.03
2024-05-09T10:39:56.117Z,11.25
2024-05-09T10:41:57.763Z,3.30
2024-05-09T10:43:59.715Z,4.18
2024-05-09T10:46:01.396Z,5.32
2024-05-09T10:48:03.402Z,4.85
2024-05-09T10:50:12.728Z,4.90
2024-05-09T10:52:20.804Z,4.80
2024-05-09T10:54:22.646Z,4.30
2024-05-09T10:56:24.390Z,5.07
2024-05-09T10:58:26.529Z,6.65
2024-05-09T11:00:35.771Z,2.72
2024-05-09T11:02:38.540Z,11.50
2024-05-09T11:04:40.667Z,4.03
2024-05-09T11:06:42.415Z,5.30
2024-05-09T11:08:45.249Z,4.70
2024-05-09T11:10:47.263Z,3.35
2024-05-09T11:12:49.078Z,2.63
2024-05-09T11:14:53.977Z,3.60
2024-05-09T11:17:05.776Z,6.03
2024-05-09T11:19:12.254Z,4.43
2024-05-09T11:21:14.191Z,4.55
2024-05-09T11:23:15.941Z,3.47
2024-05-09T11:25:17.750Z,3.83
2024-05-09T11:27:20.933Z,3.63
2024-05-09T11:29:22.607Z,3.85
2024-05-09T11:31:24.568Z,3.72
2024-05-09T11:33:26.454Z,4.87
2024-05-09T11:35:29.422Z,6.28
2024-05-09T11:39:36.931Z,3.40
2024-05-09T11:41:39.527Z,6.43
2024-05-09T11:43:41.169Z,4.13
2024-05-09T11:45:42.860Z,5.63
2024-05-09T11:47:44.642Z,4.72
2024-05-09T11:49:46.388Z,4.78
2024-05-09T11:51:48.295Z,4.05
2024-05-09T11:53:49.963Z,3.90
2024-05-09T11:55:51.711Z,7.28
2024-05-09T11:57:53.545Z,2.58
2024-05-09T11:59:55.244Z,3.85
2024-05-09T12:01:56.970Z,3.50
2024-05-09T12:03:58.990Z,4.28
2024-05-09T12:06:01.414Z,3.85
2024-05-09T12:08:03.173Z,8.63
2024-05-09T12:10:11.715Z,3.65
2024-05-09T12:12:16.628Z,6.05
2024-05-09T12:14:19.719Z,11.93
2024-05-09T12:16:23.373Z,3.83
2024-05-09T12:18:26.167Z,7.45
2024-05-09T12:20:36.126Z,3.22
2024-05-09T12:22:41.624Z,4.43
2024-05-09T12:24:44.637Z,5.10
2024-05-09T12:26:48.022Z,7.97
2024-05-09T12:30:54.075Z,6.93
2024-05-09T12:32:57.716Z,3.88
2024-05-09T12:35:01.834Z,5.60
2024-05-09T12:37:04.953Z,6.28
2024-05-09T12:39:10.000Z,4.00
2024-05-09T12:41:13.988Z,5.15
2024-05-09T12:43:19.340Z,3.60
2024-05-09T12:45:23.715Z,8.18
2024-05-09T12:47:26.838Z,4.35
2024-05-09T12:51:34.393Z,5.30
2024-05-09T12:53:37.228Z,7.28
2024-05-09T12:55:45.133Z,4.43
2024-05-09T12:57:55.100Z,4.07
2024-05-09T12:59:56.867Z,3.63
2024-05-09T13:02:00.537Z,5.00
2024-05-09T13:04:03.117Z,5.07
2024-05-09T13:06:05.022Z,5.10
2024-05-09T13:08:07.263Z,4.28
2024-05-09T13:10:13.754Z,4.50
2024-05-09T13:12:17.845Z,5.30
2024-05-09T13:14:19.502Z,7.35
2024-05-09T13:16:21.452Z,5.35
2024-05-09T13:18:23.465Z,4.90
2024-05-09T13:20:31.629Z,5.43
2024-05-09T13:22:35.668Z,4.40
2024-05-09T13:24:37.415Z,4.50
2024-05-09T13:26:39.095Z,5.68
2024-05-09T13:28:41.270Z,5.78
2024-05-09T13:30:43.145Z,9.32
2024-05-09T13:32:44.980Z,4.45
2024-05-09T13:34:46.797Z,9.43
2024-05-09T13:36:48.539Z,8.23
2024-05-09T13:38:50.271Z,8.10
2024-05-09T13:40:52.174Z,4.93
2024-05-09T13:42:54.070Z,8.80
2024-05-09T13:44:55.822Z,5.88
2024-05-09T13:46:57.719Z,9.98
2024-05-09T13:48:59.547Z,9.55
2024-05-09T13:51:01.263Z,5.78
2024-05-09T13:53:03.277Z,6.70
2024-05-09T13:55:05.288Z,6.65
2024-05-09T13:57:07.099Z,6.22
2024-05-09T13:59:09.235Z,5.07
2024-05-09T14:01:11.005Z,5.57
2024-05-09T14:03:12.924Z,7.03
2024-05-09T14:05:14.888Z,4.38
2024-05-09T14:07:17.153Z,8.55
2024-05-09T14:09:18.925Z,4.25
2024-05-09T14:11:20.741Z,10.23
2024-05-09T14:13:22.503Z,5.80
2024-05-09T14:15:24.321Z,10.13
2024-05-09T14:17:26.517Z,6.35
2024-05-09T14:19:28.520Z,7.85
2024-05-09T14:21:30.467Z,7.00
2024-05-09T14:23:32.334Z,4.97
2024-05-09T14:25:39.030Z,4.60
2024-05-09T14:27:43.712Z,10.82
2024-05-09T14:29:45.633Z,6.25
2024-05-09T14:31:47.587Z,5.57
2024-05-09T14:33:49.650Z,3.97
2024-05-09T14:35:51.389Z,5.07
2024-05-09T14:37:53.103Z,5.70
2024-05-09T14:39:54.730Z,5.18
2024-05-09T14:41:56.452Z,7.03
2024-05-09T14:43:58.092Z,4.78
2024-05-09T14:45:59.873Z,4.90
2024-05-09T14:48:02.379Z,5.32
2024-05-09T14:50:06.683Z,3.28
2024-05-09T14:52:08.610Z,4.47
2024-05-09T14:54:10.427Z,6.45
2024-05-09T14:56:12.240Z,5.20
2024-05-09T14:58:14.000Z,12.23
2024-05-09T15:00:24.750Z,6.40
2024-05-09T15:02:28.170Z,7.18
2024-05-09T15:04:30.054Z,5.60
2024-05-09T15:06:31.901Z,8.02
2024-05-09T15:08:33.738Z,3.38
2024-05-09T15:10:36.913Z,5.63
2024-05-09T15:12:39.365Z,6.25
2024-05-09T15:14:41.078Z,6.82
2024-05-09T15:16:42.890Z,6.85
2024-05-09T15:18:44.875Z,3.05
2024-05-09T15:20:47.065Z,4.97
2024-05-09T15:22:48.946Z,4.10
2024-05-09T15:24:50.696Z,8.48
2024-05-09T15:26:52.431Z,6.82
2024-05-09T15:28:54.301Z,4.25
2024-05-09T15:30:56.096Z,5.72
2024-05-09T15:32:57.931Z,6.78
2024-05-09T15:34:59.685Z,3.58
2024-05-09T15:37:01.722Z,4.68
2024-05-09T15:39:03.679Z,4.40
2024-05-09T15:41:05.645Z,4.10
2024-05-09T15:43:08.419Z,4.95
2024-05-09T15:45:11.128Z,4.28
2024-05-09T15:47:12.808Z,4.40
2024-05-09T15:49:15.724Z,4.32
2024-05-09T15:51:17.492Z,4.03
2024-05-09T15:53:19.238Z,7.68
2024-05-09T15:55:21.146Z,4.45
2024-05-09T15:57:23.193Z,4.18
2024-05-09T15:59:24.993Z,6.68
2024-05-09T16:01:26.994Z,5.03
2024-05-09T16:03:28.805Z,5.05
2024-05-09T16:05:30.664Z,3.97
2024-05-09T16:07:32.684Z,6.35
2024-05-09T16:09:34.404Z,5.55
2024-05-09T16:11:36.230Z,4.75
2024-05-09T16:13:38.072Z,4.70
2024-05-09T16:15:39.933Z,5.90
2024-05-09T16:17:41.892Z,5.43
2024-05-09T16:19:43.762Z,4.25
2024-05-09T16:21:45.508Z,4.32
2024-05-09T16:23:47.162Z,5.50
2024-05-09T16:25:48.953Z,6.47
2024-05-09T16:27:51.391Z,4.05
2024-05-09T16:29:53.127Z,3.53
2024-05-09T16:31:54.804Z,5.78
2024-05-09T16:33:56.597Z,5.95
2024-05-09T16:35:58.488Z,5.03
2024-05-09T16:38:03.750Z,6.88
2024-05-09T16:40:07.837Z,3.97
2024-05-09T16:42:14.103Z,3.25
2024-05-09T16:44:15.778Z,3.60
2024-05-09T16:46:17.611Z,6.00
2024-05-09T16:48:19.457Z,5.07
2024-05-09T16:50:28.755Z,5.53
2024-05-09T16:52:33.717Z,7.80
2024-05-09T16:54:35.369Z,4.15
2024-05-09T16:56:37.036Z,5.43
2024-05-09T16:58:39.072Z,4.72
2024-05-09T17:00:43.402Z,3.22
2024-05-09T17:02:45.892Z,3.50
2024-05-09T17:04:48.069Z,3.10
2024-05-09T17:06:50.009Z,5.32
2024-05-09T17:08:51.774Z,5.93
2024-05-09T17:10:54.173Z,3.63
2024-05-09T17:12:56.340Z,3.42
2024-05-09T17:14:58.055Z,6.07
2024-05-09T17:16:59.880Z,5.32
2024-05-09T17:19:01.711Z,3.30
2024-05-09T17:21:03.368Z,5.97
2024-05-09T17:23:12.656Z,4.07
2024-05-09T17:25:15.675Z,4.63
2024-05-09T17:27:17.442Z,3.35
2024-05-09T17:29:19.768Z,6.93
2024-05-09T17:31:21.516Z,4.88
2024-05-09T17:33:23.286Z,6.28
2024-05-09T17:35:25.017Z,4.40
2024-05-09T17:37:26.973Z,8.07
2024-05-09T17:39:28.697Z,4.35
2024-05-09T17:41:30.300Z,8.32
2024-05-09T17:43:31.983Z,4.65
2024-05-09T17:45:33.829Z,5.88
2024-05-09T17:47:36.056Z,4.07
2024-05-09T17:49:37.814Z,6.30
2024-05-09T17:51:50.210Z,7.57
2024-05-09T17:53:51.934Z,5.03
2024-05-09T17:55:55.837Z,3.90
2024-05-09T17:59:59.203Z,7.78
2024-05-09T18:02:01.005Z,2.70
2024-05-09T18:04:03.180Z,3.63
2024-05-09T18:06:05.426Z,3.90
2024-05-09T18:08:07.424Z,3.75
2024-05-09T18:10:19.007Z,3.90
2024-05-09T18:12:24.053Z,4.35
2024-05-09T18:14:25.682Z,5.38
2024-05-09T18:16:27.617Z,5.20
2024-05-09T18:18:29.381Z,7.88
2024-05-09T18:20:40.565Z,5.93
2024-05-09T18:22:46.282Z,6.43
2024-05-09T18:24:49.873Z,6.30
2024-05-09T18:28:57.122Z,7.78
2024-05-09T18:31:00.056Z,3.38
2024-05-09T18:33:02.510Z,5.78
2024-05-09T18:35:06.614Z,3.65
2024-05-09T18:37:11.212Z,6.28
2024-05-09T18:39:15.266Z,7.25
2024-05-09T18:41:21.455Z,5.47
2024-05-09T18:43:31.019Z,7.15
2024-05-09T18:45:38.857Z,12.85
2024-05-09T18:49:46.268Z,11.73
2024-05-09T18:51:49.401Z,7.32
2024-05-09T18:53:53.082Z,6.70
2024-05-09T18:55:56.011Z,5.63
2024-05-09T18:57:59.341Z,10.68
2024-05-09T19:00:02.817Z,9.65
2024-05-09T19:02:07.330Z,9.40
2024-05-09T19:04:11.120Z,10.13
2024-05-09T19:08:15.351Z,6.57
2024-05-09T19:10:22.691Z,4.63
2024-05-09T19:12:27.797Z,4.18
2024-05-09T19:14:29.514Z,5.72
2024-05-09T19:16:31.522Z,4.25
2024-05-09T19:18:33.541Z,4.00
2024-05-09T19:20:36.549Z,5.78
2024-05-09T19:22:39.075Z,4.47
2024-05-09T19:24:40.759Z,4.95
2024-05-09T19:26:42.555Z,4.93
2024-05-09T19:28:44.479Z,7.32
2024-05-09T19:30:46.266Z,6.97
2024-05-09T19:32:48.203Z,4.90
2024-05-09T19:34:49.951Z,5.60
2024-05-09T19:36:51.660Z,5.05
2024-05-09T19:38:53.495Z,4.70
2024-05-09T19:40:55.244Z,9.25
2024-05-09T19:42:57.209Z,4.45
2024-05-09T19:44:58.973Z,4.85
2024-05-09T19:47:00.668Z,6.25
2024-05-09T19:49:02.650Z,4.07
2024-05-09T19:51:04.651Z,3.83
2024-05-09T19:53:06.341Z,8.68
2024-05-09T19:55:08.056Z,7.28
2024-05-09T19:57:09.835Z,6.50
2024-05-09T19:59:14.355Z,5.90
2024-05-09T20:01:17.762Z,5.78
2024-05-09T20:03:19.694Z,7.07
2024-05-09T20:05:21.576Z,5.90
2024-05-09T20:07:23.408Z,5.03
2024-05-09T20:09:25.569Z,4.50
2024-05-09T20:11:27.404Z,6.70
2024-05-09T20:13:29.123Z,5.93
2024-05-09T20:15:34.351Z,6.72
2024-05-09T20:17:36.307Z,6.85
2024-05-09T20:19:38.082Z,7.65
2024-05-09T20:21:43.215Z,4.80
2024-05-09T20:23:44.891Z,9.25
2024-05-09T20:25:46.545Z,6.60
2024-05-09T20:27:48.298Z,7.57
2024-05-09T20:29:49.975Z,5.65
2024-05-09T20:31:51.714Z,8.73
2024-05-09T20:33:53.473Z,5.95
2024-05-09T20:36:01.679Z,11.18
2024-05-09T20:38:04.466Z,9.48
2024-05-09T20:40:10.120Z,9.15
2024-05-09T20:42:17.105Z,8.20
2024-05-09T20:44:18.917Z,12.82
2024-05-09T20:46:20.771Z,6.32
2024-05-09T20:48:22.616Z,9.45
2024-05-09T20:50:34.918Z,6.45
2024-05-09T20:52:40.782Z,8.57
2024-05-09T20:54:42.498Z,7.45
2024-05-09T20:56:44.302Z,8.48
2024-05-09T20:58:45.954Z,5.97
2024-05-09T21:00:47.851Z,9.35
2024-05-09T21:02:49.675Z,6.43
2024-05-09T21:04:51.610Z,7.05
2024-05-09T21:06:53.321Z,6.03
2024-05-09T21:08:55.679Z,6.80
2024-05-09T21:10:57.336Z,7.97
2024-05-09T21:12:59.422Z,4.78
2024-05-09T21:15:01.674Z,7.15
2024-05-09T21:17:03.457Z,6.63
2024-05-09T21:19:06.429Z,4.82
2024-05-09T21:21:08.050Z,5.45
2024-05-09T21:23:09.695Z,4.38
2024-05-09T21:25:11.511Z,4.65
2024-05-09T21:27:13.953Z,4.40
2024-05-09T21:29:15.569Z,9.52
2024-05-09T21:31:21.465Z,6.35
2024-05-09T21:33:24.438Z,4.60
2024-05-09T21:35:27.640Z,6.15
2024-05-09T21:37:30.459Z,5.47
2024-05-09T21:39:33.964Z,7.35
2024-05-09T21:41:37.636Z,7.20
2024-05-09T21:43:40.386Z,6.00
2024-05-09T21:45:43.365Z,4.72
2024-05-09T21:47:47.104Z,6.40
2024-05-09T21:49:49.615Z,4.70
2024-05-09T21:51:52.211Z,4.03
2024-05-09T21:53:55.793Z,6.22
2024-05-09T21:55:58.690Z,4.30
2024-05-09T21:58:01.732Z,6.88
2024-05-09T22:00:27.922Z,5.38
2024-05-09T22:02:37.506Z,7.35
2024-05-09T22:04:40.923Z,4.47
2024-05-09T22:06:44.335Z,4.70
2024-05-09T22:08:46.490Z,5.55
2024-05-09T22:10:48.265Z,5.28
2024-05-09T22:12:49.992Z,5.20
2024-05-09T22:14:51.648Z,5.25
2024-05-09T22:16:53.496Z,5.55
2024-05-09T22:18:55.294Z,6.43
2024-05-09T22:20:57.015Z,6.03
2024-05-09T22:22:58.604Z,6.03
2024-05-09T22:25:00.470Z,5.15
2024-05-09T22:27:02.241Z,4.63
2024-05-09T22:29:05.015Z,4.15
2024-05-09T22:31:08.838Z,5.93
2024-05-09T22:33:11.897Z,6.68
2024-05-09T22:35:14.085Z,5.72
2024-05-09T22:37:15.920Z,6.95
2024-05-09T22:39:17.794Z,5.60
2024-05-09T22:41:19.407Z,6.88
2024-05-09T22:43:23.383Z,6.68
2024-05-09T22:45:26.517Z,5.57
2024-05-09T22:47:28.248Z,7.40
2024-05-09T22:49:29.992Z,5.65
2024-05-09T22:51:31.628Z,6.47
2024-05-09T22:53:33.263Z,4.95
2024-05-09T22:55:34.949Z,6.25
2024-05-09T22:57:36.576Z,7.32
2024-05-09T22:59:38.241Z,4.72
2024-05-09T23:01:40.058Z,5.07
2024-05-09T23:03:41.990Z,4.90
2024-05-09T23:05:43.782Z,3.80
2024-05-09T23:07:45.411Z,4.00
2024-05-09T23:09:47.058Z,5.07
2024-05-09T23:11:48.735Z,5.15
2024-05-09T23:13:50.388Z,4.70
2024-05-09T23:15:52.043Z,4.65
2024-05-09T23:17:53.867Z,7.30
2024-05-09T23:19:55.677Z,5.35
2024-05-09T23:21:57.377Z,7.75
2024-05-09T23:23:58.984Z,4.50
2024-05-09T23:26:00.637Z,4.72
2024-05-09T23:28:02.727Z,8.18
2024-05-09T23:30:07.595Z,4.53
2024-05-09T23:32:09.604Z,5.75
2024-05-09T23:34:11.657Z,5.13
2024-05-09T23:36:13.626Z,4.95
2024-05-09T23:38:15.352Z,8.35
2024-05-09T23:40:19.087Z,4.70
2024-05-09T23:42:24.669Z,5.30
2024-05-09T23:44:26.315Z,6.15
2024-05-09T23:46:28.086Z,4.70
2024-05-09T23:48:29.885Z,5.15
2024-05-09T23:50:36.074Z,8.25
2024-05-09T23:52:39.849Z,7.07
2024-05-09T23:54:42.355Z,4.18
2024-05-09T23:56:44.078Z,5.32
2024-05-09T23:58:46.298Z,4.18
